This is the latest recevied weather packets stored in our database for station/object DM5AO-10. If no packets are shown the sender has not sent any weather packets the latest 10 day(s).
| Time | Temp. | Humidity | Pressure | Rain* | Wind** | Luminosity | Snow |
|---|---|---|---|---|---|---|---|
| 1787748092 | 27.22° C | 37% | 1021.5 hPa | - | - | - | - |
| 1787747192 | 27.22° C | 37% | 1021.5 hPa | - | - | - | - |
| 1787746290 | 27.22° C | 38% | 1021.6 hPa | - | - | - | - |
| 1787745390 | 26.67° C | 38% | 1021.5 hPa | - | - | - | - |
| 1787744489 | 26.67° C | 38% | 1021.6 hPa | - | - | - | - |
| 1787743588 | 26.67° C | 37% | 1021.6 hPa | - | - | - | - |
| 1787742687 | 26.11° C | 39% | 1021.6 hPa | - | - | - | - |
| 1787741786 | 26.11° C | 41% | 1021.7 hPa | - | - | - | - |
| 1787740885 | 25.56° C | 41% | 1021.7 hPa | - | - | - | - |
| 1787739984 | 26.11° C | 41% | 1021.8 hPa | - | - | - | - |
| 1787739083 | 26.11° C | 41% | 1021.7 hPa | - | - | - | - |
| 1787738182 | 25.56° C | 41% | 1021.8 hPa | - | - | - | - |
| 1787737282 | 25.56° C | 42% | 1021.9 hPa | - | - | - | - |
| 1787736381 | 25° C | 43% | 1021.9 hPa | - | - | - | - |
| 1787735480 | 24.44° C | 44% | 1021.9 hPa | - | - | - | - |
| 1787734579 | 24.44° C | 45% | 1022 hPa | - | - | - | - |
| 1787733678 | 23.89° C | 46% | 1022 hPa | - | - | - | - |
| 1787732777 | 23.89° C | 47% | 1022 hPa | - | - | - | - |
| 1787731876 | 23.89° C | 47% | 1022 hPa | - | - | - | - |
| 1787730976 | 23.33° C | 49% | 1021.8 hPa | - | - | - | - |
| 1787730075 | 22.78° C | 49% | 1021.9 hPa | - | - | - | - |
| 1787729174 | 22.22° C | 51% | 1021.7 hPa | - | - | - | - |
| 1787728273 | 22.22° C | 52% | 1021.8 hPa | - | - | - | - |
| 1787727372 | 21.67° C | 53% | 1021.6 hPa | - | - | - | - |
| 1787726471 | 21.11° C | 53% | 1021.5 hPa | - | - | - | - |
* Rain since midnight (hover to see other rain measurements)
** Current wind speed in m/s (hover to see current wind gust speed)